sensor_id;sensor_type;location;lat;lon;timestamp;P1;durP1;ratioP1;P2;durP2;ratioP2
727;SDS011;347;48.780;9.158;2022-10-23T00:00:31;11.93;;;11.33;;
727;SDS011;347;48.780;9.158;2022-10-23T00:02:56;11.60;;;10.80;;
727;SDS011;347;48.780;9.158;2022-10-23T00:05:23;11.93;;;11.30;;
727;SDS011;347;48.780;9.158;2022-10-23T00:07:50;11.80;;;11.20;;
727;SDS011;347;48.780;9.158;2022-10-23T00:10:18;12.23;;;11.63;;
727;SDS011;347;48.780;9.158;2022-10-23T00:12:45;12.37;;;11.57;;
727;SDS011;347;48.780;9.158;2022-10-23T00:15:11;12.83;;;11.83;;
727;SDS011;347;48.780;9.158;2022-10-23T00:17:39;13.27;;;12.43;;
727;SDS011;347;48.780;9.158;2022-10-23T00:20:05;13.00;;;12.20;;
727;SDS011;347;48.780;9.158;2022-10-23T00:22:31;13.00;;;12.30;;
727;SDS011;347;48.780;9.158;2022-10-23T00:24:57;12.60;;;11.90;;
727;SDS011;347;48.780;9.158;2022-10-23T00:27:23;13.03;;;12.33;;
727;SDS011;347;48.780;9.158;2022-10-23T00:29:49;12.00;;;11.40;;
727;SDS011;347;48.780;9.158;2022-10-23T00:32:15;11.80;;;11.30;;
727;SDS011;347;48.780;9.158;2022-10-23T00:34:40;12.17;;;11.50;;
727;SDS011;347;48.780;9.158;2022-10-23T00:37:06;11.77;;;11.17;;
727;SDS011;347;48.780;9.158;2022-10-23T00:39:31;12.70;;;11.53;;
727;SDS011;347;48.780;9.158;2022-10-23T00:41:57;11.83;;;11.23;;
727;SDS011;347;48.780;9.158;2022-10-23T00:46:48;12.67;;;11.87;;
727;SDS011;347;48.780;9.158;2022-10-23T00:49:14;13.33;;;12.53;;
727;SDS011;347;48.780;9.158;2022-10-23T00:51:44;12.07;;;11.47;;
727;SDS011;347;48.780;9.158;2022-10-23T00:54:16;13.20;;;12.17;;
727;SDS011;347;48.780;9.158;2022-10-23T00:56:45;12.70;;;11.87;;
727;SDS011;347;48.780;9.158;2022-10-23T00:59:11;12.80;;;11.90;;
727;SDS011;347;48.780;9.158;2022-10-23T01:01:37;11.43;;;10.90;;
727;SDS011;347;48.780;9.158;2022-10-23T01:04:03;12.40;;;11.60;;
727;SDS011;347;48.780;9.158;2022-10-23T01:06:35;12.17;;;11.33;;
727;SDS011;347;48.780;9.158;2022-10-23T01:12:09;12.40;;;11.80;;
727;SDS011;347;48.780;9.158;2022-10-23T01:14:47;13.60;;;12.50;;
727;SDS011;347;48.780;9.158;2022-10-23T01:17:40;12.90;;;12.00;;
727;SDS011;347;48.780;9.158;2022-10-23T01:26:05;12.20;;;11.60;;
727;SDS011;347;48.780;9.158;2022-10-23T01:31:42;12.27;;;11.77;;
727;SDS011;347;48.780;9.158;2022-10-23T01:34:36;13.27;;;12.17;;
727;SDS011;347;48.780;9.158;2022-10-23T01:37:15;11.70;;;11.10;;
727;SDS011;347;48.780;9.158;2022-10-23T01:39:48;11.53;;;11.00;;
727;SDS011;347;48.780;9.158;2022-10-23T01:42:18;11.90;;;11.13;;
727;SDS011;347;48.780;9.158;2022-10-23T01:44:59;11.70;;;11.20;;
727;SDS011;347;48.780;9.158;2022-10-23T01:47:32;12.03;;;11.43;;
727;SDS011;347;48.780;9.158;2022-10-23T01:50:00;11.60;;;11.13;;
727;SDS011;347;48.780;9.158;2022-10-23T01:52:28;12.80;;;11.90;;
727;SDS011;347;48.780;9.158;2022-10-23T01:54:55;13.63;;;12.47;;
727;SDS011;347;48.780;9.158;2022-10-23T01:57:24;12.93;;;12.20;;
727;SDS011;347;48.780;9.158;2022-10-23T01:59:54;13.30;;;12.30;;
727;SDS011;347;48.780;9.158;2022-10-23T02:02:27;13.03;;;12.00;;
727;SDS011;347;48.780;9.158;2022-10-23T02:05:07;12.43;;;11.83;;
727;SDS011;347;48.780;9.158;2022-10-23T02:07:54;12.27;;;11.67;;
727;SDS011;347;48.780;9.158;2022-10-23T02:10:21;18.17;;;12.20;;
727;SDS011;347;48.780;9.158;2022-10-23T02:20:33;11.80;;;11.20;;
727;SDS011;347;48.780;9.158;2022-10-23T02:23:21;12.67;;;11.80;;
727;SDS011;347;48.780;9.158;2022-10-23T02:25:54;13.33;;;12.47;;
727;SDS011;347;48.780;9.158;2022-10-23T02:28:25;12.83;;;12.17;;
727;SDS011;347;48.780;9.158;2022-10-23T02:30:57;12.77;;;12.17;;
727;SDS011;347;48.780;9.158;2022-10-23T02:33:24;11.67;;;11.07;;
727;SDS011;347;48.780;9.158;2022-10-23T02:35:52;13.00;;;12.20;;
727;SDS011;347;48.780;9.158;2022-10-23T02:54:41;13.57;;;12.77;;
727;SDS011;347;48.780;9.158;2022-10-23T03:00:13;13.67;;;12.97;;
727;SDS011;347;48.780;9.158;2022-10-23T03:03:02;12.47;;;11.97;;
727;SDS011;347;48.780;9.158;2022-10-23T03:05:30;12.93;;;12.30;;
727;SDS011;347;48.780;9.158;2022-10-23T03:08:01;12.97;;;12.23;;
727;SDS011;347;48.780;9.158;2022-10-23T03:10:28;13.47;;;12.73;;
727;SDS011;347;48.780;9.158;2022-10-23T03:12:54;12.70;;;12.20;;
727;SDS011;347;48.780;9.158;2022-10-23T03:15:20;13.70;;;12.90;;
727;SDS011;347;48.780;9.158;2022-10-23T03:17:45;13.23;;;12.33;;
727;SDS011;347;48.780;9.158;2022-10-23T03:20:11;13.80;;;13.10;;
727;SDS011;347;48.780;9.158;2022-10-23T03:22:37;14.00;;;13.10;;
727;SDS011;347;48.780;9.158;2022-10-23T03:25:03;13.47;;;12.80;;
727;SDS011;347;48.780;9.158;2022-10-23T03:27:29;13.80;;;13.10;;
727;SDS011;347;48.780;9.158;2022-10-23T03:29:55;13.20;;;12.50;;
727;SDS011;347;48.780;9.158;2022-10-23T03:32:21;12.80;;;12.20;;
727;SDS011;347;48.780;9.158;2022-10-23T03:34:46;12.73;;;12.13;;
727;SDS011;347;48.780;9.158;2022-10-23T03:37:12;13.30;;;12.60;;
727;SDS011;347;48.780;9.158;2022-10-23T03:39:37;12.77;;;12.17;;
727;SDS011;347;48.780;9.158;2022-10-23T03:42:03;13.27;;;12.37;;
727;SDS011;347;48.780;9.158;2022-10-23T03:44:29;12.50;;;11.90;;
727;SDS011;347;48.780;9.158;2022-10-23T03:46:58;12.70;;;12.00;;
727;SDS011;347;48.780;9.158;2022-10-23T03:49:24;14.00;;;13.03;;
727;SDS011;347;48.780;9.158;2022-10-23T03:51:49;12.80;;;12.00;;
727;SDS011;347;48.780;9.158;2022-10-23T03:54:23;13.43;;;12.53;;
727;SDS011;347;48.780;9.158;2022-10-23T03:56:50;12.00;;;11.40;;
727;SDS011;347;48.780;9.158;2022-10-23T03:59:17;13.47;;;12.80;;
727;SDS011;347;48.780;9.158;2022-10-23T04:01:43;13.30;;;12.80;;
727;SDS011;347;48.780;9.158;2022-10-23T04:04:09;12.27;;;11.67;;
727;SDS011;347;48.780;9.158;2022-10-23T04:06:35;12.93;;;12.33;;
727;SDS011;347;48.780;9.158;2022-10-23T04:09:00;11.67;;;11.07;;
727;SDS011;347;48.780;9.158;2022-10-23T04:11:26;12.10;;;11.50;;
727;SDS011;347;48.780;9.158;2022-10-23T04:13:52;12.80;;;11.67;;
727;SDS011;347;48.780;9.158;2022-10-23T04:16:18;12.33;;;11.63;;
727;SDS011;347;48.780;9.158;2022-10-23T04:18:43;12.40;;;11.80;;
727;SDS011;347;48.780;9.158;2022-10-23T04:21:09;11.87;;;11.20;;
727;SDS011;347;48.780;9.158;2022-10-23T04:23:35;12.10;;;11.33;;
727;SDS011;347;48.780;9.158;2022-10-23T04:26:01;11.80;;;11.30;;
727;SDS011;347;48.780;9.158;2022-10-23T04:28:27;11.30;;;10.80;;
727;SDS011;347;48.780;9.158;2022-10-23T04:30:52;12.77;;;12.00;;
727;SDS011;347;48.780;9.158;2022-10-23T04:33:19;12.03;;;11.50;;
727;SDS011;347;48.780;9.158;2022-10-23T04:35:45;11.53;;;10.93;;
727;SDS011;347;48.780;9.158;2022-10-23T04:38:10;12.57;;;11.77;;
727;SDS011;347;48.780;9.158;2022-10-23T04:40:36;11.33;;;10.83;;
727;SDS011;347;48.780;9.158;2022-10-23T04:43:02;12.60;;;11.90;;
727;SDS011;347;48.780;9.158;2022-10-23T04:45:28;11.63;;;11.03;;
727;SDS011;347;48.780;9.158;2022-10-23T04:47:54;11.40;;;10.90;;
727;SDS011;347;48.780;9.158;2022-10-23T04:50:20;11.67;;;10.97;;
727;SDS011;347;48.780;9.158;2022-10-23T04:52:46;11.83;;;11.30;;
727;SDS011;347;48.780;9.158;2022-10-23T04:55:12;12.73;;;11.83;;
727;SDS011;347;48.780;9.158;2022-10-23T04:57:38;10.70;;;10.10;;
727;SDS011;347;48.780;9.158;2022-10-23T05:00:04;11.80;;;11.30;;
727;SDS011;347;48.780;9.158;2022-10-23T05:02:31;12.70;;;11.90;;
727;SDS011;347;48.780;9.158;2022-10-23T05:04:57;11.70;;;11.10;;
727;SDS011;347;48.780;9.158;2022-10-23T05:07:23;12.30;;;11.47;;
727;SDS011;347;48.780;9.158;2022-10-23T05:09:48;12.07;;;11.27;;
727;SDS011;347;48.780;9.158;2022-10-23T05:12:14;12.17;;;11.67;;
727;SDS011;347;48.780;9.158;2022-10-23T05:14:39;12.60;;;11.50;;
727;SDS011;347;48.780;9.158;2022-10-23T05:17:06;12.13;;;11.60;;
727;SDS011;347;48.780;9.158;2022-10-23T05:19:38;11.70;;;11.20;;
727;SDS011;347;48.780;9.158;2022-10-23T05:22:07;11.67;;;11.00;;
727;SDS011;347;48.780;9.158;2022-10-23T05:24:34;12.70;;;11.80;;
727;SDS011;347;48.780;9.158;2022-10-23T05:27:00;11.60;;;11.00;;
727;SDS011;347;48.780;9.158;2022-10-23T05:29:25;11.53;;;11.03;;
727;SDS011;347;48.780;9.158;2022-10-23T05:31:52;11.70;;;11.10;;
727;SDS011;347;48.780;9.158;2022-10-23T05:34:23;12.00;;;11.50;;
727;SDS011;347;48.780;9.158;2022-10-23T05:36:50;12.13;;;11.40;;
727;SDS011;347;48.780;9.158;2022-10-23T05:39:17;12.57;;;11.70;;
727;SDS011;347;48.780;9.158;2022-10-23T05:41:43;13.50;;;12.37;;
727;SDS011;347;48.780;9.158;2022-10-23T05:44:09;11.73;;;11.13;;
727;SDS011;347;48.780;9.158;2022-10-23T05:46:39;10.93;;;10.27;;
727;SDS011;347;48.780;9.158;2022-10-23T05:49:06;11.07;;;10.43;;
727;SDS011;347;48.780;9.158;2022-10-23T05:51:34;10.60;;;10.10;;
727;SDS011;347;48.780;9.158;2022-10-23T05:54:01;11.60;;;10.83;;
727;SDS011;347;48.780;9.158;2022-10-23T05:56:27;11.93;;;11.33;;
727;SDS011;347;48.780;9.158;2022-10-23T05:58:53;11.00;;;10.60;;
727;SDS011;347;48.780;9.158;2022-10-23T06:01:18;12.37;;;11.23;;
727;SDS011;347;48.780;9.158;2022-10-23T06:03:44;13.20;;;12.10;;
727;SDS011;347;48.780;9.158;2022-10-23T06:06:10;12.37;;;11.40;;
727;SDS011;347;48.780;9.158;2022-10-23T06:08:35;12.40;;;11.73;;
727;SDS011;347;48.780;9.158;2022-10-23T06:11:08;12.53;;;11.93;;
727;SDS011;347;48.780;9.158;2022-10-23T06:13:35;13.00;;;12.40;;
727;SDS011;347;48.780;9.158;2022-10-23T06:16:08;13.90;;;13.10;;
727;SDS011;347;48.780;9.158;2022-10-23T06:18:39;13.07;;;12.27;;
727;SDS011;347;48.780;9.158;2022-10-23T06:21:05;14.00;;;12.87;;
727;SDS011;347;48.780;9.158;2022-10-23T06:23:32;12.30;;;11.80;;
727;SDS011;347;48.780;9.158;2022-10-23T06:25:58;11.97;;;11.27;;
727;SDS011;347;48.780;9.158;2022-10-23T06:28:24;11.93;;;11.43;;
727;SDS011;347;48.780;9.158;2022-10-23T06:30:50;12.13;;;11.43;;
727;SDS011;347;48.780;9.158;2022-10-23T06:33:15;12.47;;;11.17;;
727;SDS011;347;48.780;9.158;2022-10-23T06:35:41;12.20;;;11.60;;
727;SDS011;347;48.780;9.158;2022-10-23T06:38:08;12.70;;;11.90;;
727;SDS011;347;48.780;9.158;2022-10-23T06:40:34;11.60;;;10.90;;
727;SDS011;347;48.780;9.158;2022-10-23T06:43:01;13.00;;;12.10;;
727;SDS011;347;48.780;9.158;2022-10-23T06:45:27;13.07;;;12.20;;
727;SDS011;347;48.780;9.158;2022-10-23T06:47:57;12.53;;;11.70;;
727;SDS011;347;48.780;9.158;2022-10-23T06:50:24;11.90;;;11.40;;
727;SDS011;347;48.780;9.158;2022-10-23T06:52:50;11.90;;;11.07;;
727;SDS011;347;48.780;9.158;2022-10-23T06:55:16;11.27;;;10.73;;
727;SDS011;347;48.780;9.158;2022-10-23T06:57:42;12.10;;;11.20;;
727;SDS011;347;48.780;9.158;2022-10-23T07:00:08;12.33;;;11.60;;
727;SDS011;347;48.780;9.158;2022-10-23T07:02:34;12.13;;;11.53;;
727;SDS011;347;48.780;9.158;2022-10-23T07:05:00;12.73;;;11.93;;
727;SDS011;347;48.780;9.158;2022-10-23T07:07:28;12.53;;;11.73;;
727;SDS011;347;48.780;9.158;2022-10-23T07:09:54;12.30;;;11.50;;
727;SDS011;347;48.780;9.158;2022-10-23T07:12:20;11.10;;;10.60;;
727;SDS011;347;48.780;9.158;2022-10-23T07:14:45;12.50;;;11.57;;
727;SDS011;347;48.780;9.158;2022-10-23T07:17:11;11.50;;;10.70;;
727;SDS011;347;48.780;9.158;2022-10-23T07:19:36;12.10;;;11.40;;
727;SDS011;347;48.780;9.158;2022-10-23T07:22:02;11.90;;;11.27;;
727;SDS011;347;48.780;9.158;2022-10-23T07:24:28;11.97;;;11.27;;
727;SDS011;347;48.780;9.158;2022-10-23T07:26:55;12.20;;;11.60;;
727;SDS011;347;48.780;9.158;2022-10-23T07:29:22;11.90;;;11.40;;
727;SDS011;347;48.780;9.158;2022-10-23T07:31:48;11.40;;;10.90;;
727;SDS011;347;48.780;9.158;2022-10-23T07:34:13;12.47;;;11.73;;
727;SDS011;347;48.780;9.158;2022-10-23T07:36:39;12.17;;;11.57;;
727;SDS011;347;48.780;9.158;2022-10-23T07:39:05;11.00;;;10.40;;
727;SDS011;347;48.780;9.158;2022-10-23T07:41:31;11.43;;;10.90;;
727;SDS011;347;48.780;9.158;2022-10-23T07:43:57;11.83;;;11.23;;
727;SDS011;347;48.780;9.158;2022-10-23T07:46:22;10.93;;;10.30;;
727;SDS011;347;48.780;9.158;2022-10-23T07:48:48;12.73;;;11.73;;
727;SDS011;347;48.780;9.158;2022-10-23T07:51:14;17.80;;;10.80;;
727;SDS011;347;48.780;9.158;2022-10-23T07:53:40;12.20;;;11.30;;
727;SDS011;347;48.780;9.158;2022-10-23T07:56:14;12.53;;;11.40;;
727;SDS011;347;48.780;9.158;2022-10-23T07:58:41;11.77;;;10.97;;
727;SDS011;347;48.780;9.158;2022-10-23T08:01:14;10.93;;;10.40;;
727;SDS011;347;48.780;9.158;2022-10-23T08:03:43;13.33;;;10.23;;
727;SDS011;347;48.780;9.158;2022-10-23T08:06:08;10.47;;;10.07;;
727;SDS011;347;48.780;9.158;2022-10-23T08:08:34;9.57;;;9.27;;
727;SDS011;347;48.780;9.158;2022-10-23T08:11:00;10.47;;;9.97;;
727;SDS011;347;48.780;9.158;2022-10-23T08:13:26;10.23;;;9.73;;
727;SDS011;347;48.780;9.158;2022-10-23T08:15:51;9.90;;;9.50;;
727;SDS011;347;48.780;9.158;2022-10-23T08:18:17;10.37;;;9.80;;
727;SDS011;347;48.780;9.158;2022-10-23T08:20:45;9.20;;;8.90;;
727;SDS011;347;48.780;9.158;2022-10-23T08:23:12;9.37;;;9.00;;
727;SDS011;347;48.780;9.158;2022-10-23T08:25:41;9.47;;;9.17;;
727;SDS011;347;48.780;9.158;2022-10-23T08:28:07;9.20;;;8.80;;
727;SDS011;347;48.780;9.158;2022-10-23T08:30:34;9.10;;;8.73;;
727;SDS011;347;48.780;9.158;2022-10-23T08:33:04;9.40;;;8.90;;
727;SDS011;347;48.780;9.158;2022-10-23T08:35:35;11.23;;;10.63;;
727;SDS011;347;48.780;9.158;2022-10-23T08:38:04;10.93;;;10.23;;
727;SDS011;347;48.780;9.158;2022-10-23T08:40:30;10.27;;;9.50;;
727;SDS011;347;48.780;9.158;2022-10-23T08:43:11;10.70;;;10.10;;
727;SDS011;347;48.780;9.158;2022-10-23T08:46:03;11.37;;;10.50;;
727;SDS011;347;48.780;9.158;2022-10-23T08:51:24;10.43;;;9.93;;
727;SDS011;347;48.780;9.158;2022-10-23T08:54:05;10.03;;;9.53;;
727;SDS011;347;48.780;9.158;2022-10-23T08:56:33;9.63;;;9.33;;
727;SDS011;347;48.780;9.158;2022-10-23T09:01:59;10.93;;;10.20;;
727;SDS011;347;48.780;9.158;2022-10-23T09:04:36;10.60;;;9.90;;
727;SDS011;347;48.780;9.158;2022-10-23T09:12:11;11.37;;;10.57;;
727;SDS011;347;48.780;9.158;2022-10-23T09:15:21;9.90;;;9.50;;
727;SDS011;347;48.780;9.158;2022-10-23T09:17:59;9.90;;;9.50;;
727;SDS011;347;48.780;9.158;2022-10-23T09:20:31;9.83;;;9.43;;
727;SDS011;347;48.780;9.158;2022-10-23T09:23:02;9.27;;;8.83;;
727;SDS011;347;48.780;9.158;2022-10-23T09:25:38;9.20;;;8.57;;
727;SDS011;347;48.780;9.158;2022-10-23T09:28:05;8.30;;;8.00;;
727;SDS011;347;48.780;9.158;2022-10-23T09:30:45;7.90;;;7.70;;
727;SDS011;347;48.780;9.158;2022-10-23T09:33:25;8.10;;;7.80;;
727;SDS011;347;48.780;9.158;2022-10-23T09:35:59;8.40;;;8.10;;
727;SDS011;347;48.780;9.158;2022-10-23T09:38:29;8.40;;;7.90;;
727;SDS011;347;48.780;9.158;2022-10-23T09:40:59;8.33;;;8.13;;
727;SDS011;347;48.780;9.158;2022-10-23T09:43:30;8.60;;;8.30;;
727;SDS011;347;48.780;9.158;2022-10-23T09:46:03;10.10;;;9.70;;
727;SDS011;347;48.780;9.158;2022-10-23T09:48:30;8.77;;;8.47;;
727;SDS011;347;48.780;9.158;2022-10-23T09:53:34;9.80;;;9.20;;
727;SDS011;347;48.780;9.158;2022-10-23T09:56:04;10.30;;;9.80;;
727;SDS011;347;48.780;9.158;2022-10-23T09:58:36;10.00;;;9.50;;
727;SDS011;347;48.780;9.158;2022-10-23T10:01:05;9.60;;;9.30;;
727;SDS011;347;48.780;9.158;2022-10-23T10:03:30;9.80;;;9.40;;
727;SDS011;347;48.780;9.158;2022-10-23T10:05:57;9.70;;;9.30;;
727;SDS011;347;48.780;9.158;2022-10-23T10:08:45;9.50;;;9.07;;
727;SDS011;347;48.780;9.158;2022-10-23T10:11:26;9.17;;;8.77;;
727;SDS011;347;48.780;9.158;2022-10-23T10:16:55;11.07;;;9.97;;
727;SDS011;347;48.780;9.158;2022-10-23T10:24:45;9.73;;;9.20;;
727;SDS011;347;48.780;9.158;2022-10-23T10:40:27;7.10;;;6.80;;
727;SDS011;347;48.780;9.158;2022-10-23T10:50:45;7.93;;;7.63;;
727;SDS011;347;48.780;9.158;2022-10-23T10:56:28;9.17;;;8.57;;
727;SDS011;347;48.780;9.158;2022-10-23T10:59:05;7.73;;;7.43;;
727;SDS011;347;48.780;9.158;2022-10-23T11:04:17;7.43;;;7.13;;
727;SDS011;347;48.780;9.158;2022-10-23T11:07:00;7.57;;;7.00;;
727;SDS011;347;48.780;9.158;2022-10-23T11:09:32;7.60;;;7.20;;
727;SDS011;347;48.780;9.158;2022-10-23T11:11:58;7.77;;;7.43;;
727;SDS011;347;48.780;9.158;2022-10-23T11:14:24;7.93;;;7.63;;
727;SDS011;347;48.780;9.158;2022-10-23T11:19:29;8.10;;;7.70;;
727;SDS011;347;48.780;9.158;2022-10-23T11:38:34;8.13;;;7.70;;
727;SDS011;347;48.780;9.158;2022-10-23T11:41:06;7.03;;;6.83;;
727;SDS011;347;48.780;9.158;2022-10-23T11:48:51;9.93;;;9.33;;
727;SDS011;347;48.780;9.158;2022-10-23T11:51:26;8.47;;;7.97;;
727;SDS011;347;48.780;9.158;2022-10-23T11:56:34;10.00;;;9.40;;
727;SDS011;347;48.780;9.158;2022-10-23T11:59:20;9.17;;;8.77;;
727;SDS011;347;48.780;9.158;2022-10-23T12:01:47;10.73;;;10.00;;
727;SDS011;347;48.780;9.158;2022-10-23T12:04:23;9.20;;;8.83;;
727;SDS011;347;48.780;9.158;2022-10-23T12:06:57;8.80;;;8.50;;
727;SDS011;347;48.780;9.158;2022-10-23T12:09:26;9.00;;;8.63;;
727;SDS011;347;48.780;9.158;2022-10-23T12:14:39;9.27;;;8.77;;
727;SDS011;347;48.780;9.158;2022-10-23T12:19:48;9.70;;;9.20;;
727;SDS011;347;48.780;9.158;2022-10-23T12:22:16;9.93;;;9.27;;
727;SDS011;347;48.780;9.158;2022-10-23T12:28:04;9.63;;;9.03;;
727;SDS011;347;48.780;9.158;2022-10-23T12:30:19;9.37;;;8.87;;
727;SDS011;347;48.780;9.158;2022-10-23T12:38:25;10.53;;;9.93;;
727;SDS011;347;48.780;9.158;2022-10-23T12:40:54;9.87;;;9.37;;
727;SDS011;347;48.780;9.158;2022-10-23T12:43:26;8.53;;;8.23;;
727;SDS011;347;48.780;9.158;2022-10-23T12:45:55;10.17;;;9.20;;
727;SDS011;347;48.780;9.158;2022-10-23T12:48:46;8.53;;;8.23;;
727;SDS011;347;48.780;9.158;2022-10-23T12:51:19;9.00;;;8.50;;
727;SDS011;347;48.780;9.158;2022-10-23T12:53:48;8.37;;;7.90;;
727;SDS011;347;48.780;9.158;2022-10-23T12:56:14;9.37;;;8.73;;
727;SDS011;347;48.780;9.158;2022-10-23T12:58:48;8.30;;;8.00;;
727;SDS011;347;48.780;9.158;2022-10-23T13:01:24;8.40;;;8.00;;
727;SDS011;347;48.780;9.158;2022-10-23T13:06:32;9.00;;;8.60;;
727;SDS011;347;48.780;9.158;2022-10-23T13:08:58;7.80;;;7.50;;
727;SDS011;347;48.780;9.158;2022-10-23T13:11:24;8.43;;;7.93;;
727;SDS011;347;48.780;9.158;2022-10-23T13:13:52;8.70;;;8.30;;
727;SDS011;347;48.780;9.158;2022-10-23T13:16:18;8.80;;;8.50;;
727;SDS011;347;48.780;9.158;2022-10-23T13:18:46;9.20;;;8.70;;
727;SDS011;347;48.780;9.158;2022-10-23T13:21:25;9.33;;;8.83;;
727;SDS011;347;48.780;9.158;2022-10-23T13:23:56;8.70;;;8.40;;
727;SDS011;347;48.780;9.158;2022-10-23T13:26:32;9.97;;;9.20;;
727;SDS011;347;48.780;9.158;2022-10-23T13:29:01;9.50;;;9.03;;
727;SDS011;347;48.780;9.158;2022-10-23T13:31:31;9.83;;;9.10;;
727;SDS011;347;48.780;9.158;2022-10-23T13:36:23;9.30;;;8.90;;
727;SDS011;347;48.780;9.158;2022-10-23T13:41:26;10.23;;;9.63;;
727;SDS011;347;48.780;9.158;2022-10-23T13:43:54;10.03;;;9.43;;
727;SDS011;347;48.780;9.158;2022-10-23T13:46:21;10.63;;;9.53;;
727;SDS011;347;48.780;9.158;2022-10-23T13:48:49;10.23;;;9.37;;
727;SDS011;347;48.780;9.158;2022-10-23T13:53:45;15.20;;;14.10;;
727;SDS011;347;48.780;9.158;2022-10-23T13:56:12;13.73;;;12.93;;
727;SDS011;347;48.780;9.158;2022-10-23T13:58:39;14.30;;;13.40;;
727;SDS011;347;48.780;9.158;2022-10-23T14:01:05;14.83;;;13.70;;
727;SDS011;347;48.780;9.158;2022-10-23T14:03:36;12.53;;;11.63;;
727;SDS011;347;48.780;9.158;2022-10-23T14:06:01;13.07;;;12.17;;
727;SDS011;347;48.780;9.158;2022-10-23T14:08:27;11.97;;;11.30;;
727;SDS011;347;48.780;9.158;2022-10-23T14:10:53;13.10;;;11.87;;
727;SDS011;347;48.780;9.158;2022-10-23T14:13:18;12.23;;;11.33;;
727;SDS011;347;48.780;9.158;2022-10-23T14:15:51;10.70;;;10.10;;
727;SDS011;347;48.780;9.158;2022-10-23T14:18:17;10.87;;;10.37;;
727;SDS011;347;48.780;9.158;2022-10-23T14:20:43;9.87;;;9.37;;
727;SDS011;347;48.780;9.158;2022-10-23T14:23:09;9.50;;;8.90;;
727;SDS011;347;48.780;9.158;2022-10-23T14:25:35;10.43;;;9.93;;
727;SDS011;347;48.780;9.158;2022-10-23T14:28:01;9.83;;;9.33;;
727;SDS011;347;48.780;9.158;2022-10-23T14:30:27;10.60;;;10.10;;
727;SDS011;347;48.780;9.158;2022-10-23T14:32:52;10.50;;;9.70;;
727;SDS011;347;48.780;9.158;2022-10-23T14:35:18;11.50;;;10.50;;
727;SDS011;347;48.780;9.158;2022-10-23T14:37:43;10.23;;;9.53;;
727;SDS011;347;48.780;9.158;2022-10-23T14:40:09;10.80;;;10.20;;
727;SDS011;347;48.780;9.158;2022-10-23T14:42:35;11.60;;;10.60;;
727;SDS011;347;48.780;9.158;2022-10-23T14:45:01;10.93;;;10.37;;
727;SDS011;347;48.780;9.158;2022-10-23T14:47:28;10.70;;;10.20;;
727;SDS011;347;48.780;9.158;2022-10-23T14:49:54;10.53;;;9.93;;
727;SDS011;347;48.780;9.158;2022-10-23T14:52:20;10.40;;;9.80;;
727;SDS011;347;48.780;9.158;2022-10-23T14:54:46;11.33;;;10.57;;
727;SDS011;347;48.780;9.158;2022-10-23T14:57:12;34.67;;;21.03;;
727;SDS011;347;48.780;9.158;2022-10-23T14:59:40;13.20;;;11.80;;
727;SDS011;347;48.780;9.158;2022-10-23T15:02:08;10.70;;;10.00;;
727;SDS011;347;48.780;9.158;2022-10-23T15:04:37;11.03;;;10.33;;
727;SDS011;347;48.780;9.158;2022-10-23T15:07:03;11.33;;;10.40;;
727;SDS011;347;48.780;9.158;2022-10-23T15:09:30;11.70;;;10.93;;
727;SDS011;347;48.780;9.158;2022-10-23T15:12:00;10.67;;;9.90;;
727;SDS011;347;48.780;9.158;2022-10-23T15:14:27;11.63;;;11.03;;
727;SDS011;347;48.780;9.158;2022-10-23T15:16:53;10.67;;;10.17;;
727;SDS011;347;48.780;9.158;2022-10-23T15:19:18;11.87;;;11.27;;
727;SDS011;347;48.780;9.158;2022-10-23T15:21:45;11.77;;;11.07;;
727;SDS011;347;48.780;9.158;2022-10-23T15:24:11;12.43;;;11.50;;
727;SDS011;347;48.780;9.158;2022-10-23T15:26:37;12.40;;;11.30;;
727;SDS011;347;48.780;9.158;2022-10-23T15:29:03;11.53;;;10.83;;
727;SDS011;347;48.780;9.158;2022-10-23T15:34:17;13.27;;;12.33;;
727;SDS011;347;48.780;9.158;2022-10-23T15:36:45;13.10;;;12.20;;
727;SDS011;347;48.780;9.158;2022-10-23T15:39:11;12.00;;;11.30;;
727;SDS011;347;48.780;9.158;2022-10-23T15:41:38;12.40;;;11.30;;
727;SDS011;347;48.780;9.158;2022-10-23T15:44:06;13.00;;;12.00;;
727;SDS011;347;48.780;9.158;2022-10-23T15:46:33;12.57;;;11.87;;
727;SDS011;347;48.780;9.158;2022-10-23T15:48:59;11.80;;;11.10;;
727;SDS011;347;48.780;9.158;2022-10-23T15:51:25;11.87;;;11.00;;
727;SDS011;347;48.780;9.158;2022-10-23T15:53:51;14.70;;;13.70;;
727;SDS011;347;48.780;9.158;2022-10-23T15:56:16;13.43;;;12.60;;
727;SDS011;347;48.780;9.158;2022-10-23T15:58:42;12.70;;;11.90;;
727;SDS011;347;48.780;9.158;2022-10-23T16:01:08;12.37;;;11.67;;
727;SDS011;347;48.780;9.158;2022-10-23T16:03:34;14.53;;;13.20;;
727;SDS011;347;48.780;9.158;2022-10-23T16:06:02;13.53;;;12.63;;
727;SDS011;347;48.780;9.158;2022-10-23T16:08:32;12.63;;;11.63;;
727;SDS011;347;48.780;9.158;2022-10-23T16:10:59;11.30;;;10.40;;
727;SDS011;347;48.780;9.158;2022-10-23T16:13:25;12.40;;;11.10;;
727;SDS011;347;48.780;9.158;2022-10-23T16:15:51;12.10;;;11.20;;
727;SDS011;347;48.780;9.158;2022-10-23T16:18:18;13.80;;;12.87;;
727;SDS011;347;48.780;9.158;2022-10-23T16:20:44;12.33;;;11.63;;
727;SDS011;347;48.780;9.158;2022-10-23T16:23:10;13.97;;;12.90;;
727;SDS011;347;48.780;9.158;2022-10-23T16:25:36;12.93;;;12.07;;
727;SDS011;347;48.780;9.158;2022-10-23T16:28:02;11.90;;;11.30;;
727;SDS011;347;48.780;9.158;2022-10-23T16:30:29;12.60;;;11.83;;
727;SDS011;347;48.780;9.158;2022-10-23T16:32:55;11.43;;;10.77;;
727;SDS011;347;48.780;9.158;2022-10-23T16:35:21;11.17;;;10.57;;
727;SDS011;347;48.780;9.158;2022-10-23T16:37:47;10.43;;;9.83;;
727;SDS011;347;48.780;9.158;2022-10-23T16:40:13;9.50;;;9.10;;
727;SDS011;347;48.780;9.158;2022-10-23T16:42:39;9.60;;;9.20;;
727;SDS011;347;48.780;9.158;2022-10-23T16:45:06;9.70;;;9.20;;
727;SDS011;347;48.780;9.158;2022-10-23T16:47:32;9.80;;;9.40;;
727;SDS011;347;48.780;9.158;2022-10-23T16:49:58;10.07;;;9.57;;
727;SDS011;347;48.780;9.158;2022-10-23T16:52:25;8.97;;;8.67;;
727;SDS011;347;48.780;9.158;2022-10-23T16:54:51;9.40;;;8.90;;
727;SDS011;347;48.780;9.158;2022-10-23T16:57:17;10.10;;;9.40;;
727;SDS011;347;48.780;9.158;2022-10-23T16:59:43;10.40;;;9.87;;
727;SDS011;347;48.780;9.158;2022-10-23T17:02:09;9.83;;;9.43;;
727;SDS011;347;48.780;9.158;2022-10-23T17:04:36;12.87;;;11.87;;
727;SDS011;347;48.780;9.158;2022-10-23T17:07:01;17.13;;;15.47;;
727;SDS011;347;48.780;9.158;2022-10-23T17:09:27;17.10;;;15.70;;
727;SDS011;347;48.780;9.158;2022-10-23T17:11:55;9.07;;;8.57;;
727;SDS011;347;48.780;9.158;2022-10-23T17:14:22;9.80;;;9.17;;
727;SDS011;347;48.780;9.158;2022-10-23T17:16:54;9.70;;;9.00;;
727;SDS011;347;48.780;9.158;2022-10-23T17:19:26;9.30;;;8.70;;
727;SDS011;347;48.780;9.158;2022-10-23T17:21:53;9.40;;;8.90;;
727;SDS011;347;48.780;9.158;2022-10-23T17:24:20;8.63;;;8.30;;
727;SDS011;347;48.780;9.158;2022-10-23T17:26:46;8.63;;;8.23;;
727;SDS011;347;48.780;9.158;2022-10-23T17:29:12;9.77;;;9.33;;
727;SDS011;347;48.780;9.158;2022-10-23T17:31:39;9.40;;;9.00;;
727;SDS011;347;48.780;9.158;2022-10-23T17:34:09;9.10;;;8.70;;
727;SDS011;347;48.780;9.158;2022-10-23T17:36:38;8.77;;;8.37;;
727;SDS011;347;48.780;9.158;2022-10-23T17:39:07;9.60;;;9.00;;
727;SDS011;347;48.780;9.158;2022-10-23T17:41:34;10.20;;;9.70;;
727;SDS011;347;48.780;9.158;2022-10-23T17:44:00;10.13;;;9.57;;
727;SDS011;347;48.780;9.158;2022-10-23T17:46:26;10.03;;;9.53;;
727;SDS011;347;48.780;9.158;2022-10-23T17:48:55;8.80;;;8.30;;
727;SDS011;347;48.780;9.158;2022-10-23T17:51:22;10.30;;;9.53;;
727;SDS011;347;48.780;9.158;2022-10-23T17:53:50;10.23;;;9.40;;
727;SDS011;347;48.780;9.158;2022-10-23T17:56:20;11.10;;;10.40;;